createdAt,value
2019-03-05T00:01:23.919Z,0.70
2019-03-05T00:03:54.714Z,1.33
2019-03-05T00:06:25.494Z,1.40
2019-03-05T00:08:56.275Z,1.27
2019-03-05T00:11:26.997Z,1.33
2019-03-05T00:13:57.976Z,0.90
2019-03-05T00:16:28.742Z,0.90
2019-03-05T00:18:59.597Z,1.03
2019-03-05T00:21:30.304Z,1.00
2019-03-05T00:24:38.919Z,1.17
2019-03-05T00:27:09.704Z,2.00
2019-03-05T00:30:30.054Z,0.80
2019-03-05T00:33:26.841Z,1.73
2019-03-05T00:36:20.730Z,1.53
2019-03-05T00:39:19.818Z,0.83
2019-03-05T00:42:29.313Z,1.00
2019-03-05T00:45:27.408Z,1.07
2019-03-05T00:48:38.734Z,0.83
2019-03-05T00:51:49.698Z,0.90
2019-03-05T00:54:50.591Z,0.77
2019-03-05T00:57:46.257Z,0.80
2019-03-05T01:01:28.339Z,0.53
2019-03-05T01:04:30.027Z,0.97
2019-03-05T01:07:01.140Z,0.53
2019-03-05T01:09:32.082Z,0.60
2019-03-05T01:12:02.840Z,0.63
2019-03-05T01:14:34.078Z,0.63
2019-03-05T01:17:06.768Z,0.87
2019-03-05T01:19:37.609Z,0.50
2019-03-05T01:22:08.491Z,0.53
2019-03-05T01:24:39.380Z,0.77
2019-03-05T01:27:10.281Z,0.60
2019-03-05T01:29:41.381Z,0.63
2019-03-05T01:32:31.465Z,0.97
2019-03-05T01:35:15.818Z,0.50
2019-03-05T01:37:46.702Z,1.00
2019-03-05T01:40:45.622Z,0.73
2019-03-05T01:43:17.490Z,0.60
2019-03-05T01:45:48.443Z,0.70
2019-03-05T01:48:19.952Z,0.50
2019-03-05T01:50:50.812Z,0.70
2019-03-05T01:53:21.431Z,1.17
2019-03-05T01:55:52.197Z,0.90
2019-03-05T01:58:22.992Z,0.90
2019-03-05T02:00:53.883Z,0.80
2019-03-05T02:03:24.913Z,1.60
2019-03-05T02:05:55.873Z,0.93
2019-03-05T02:08:26.747Z,0.90
2019-03-05T02:10:57.789Z,0.90
2019-03-05T02:13:28.618Z,0.60
2019-03-05T02:15:59.386Z,0.93
2019-03-05T02:18:30.386Z,1.03
2019-03-05T02:21:01.260Z,0.80
2019-03-05T02:23:40.933Z,0.60
2019-03-05T02:26:47.454Z,0.93
2019-03-05T02:29:42.216Z,0.70
2019-03-05T02:32:55.622Z,1.07
2019-03-05T02:35:51.574Z,1.10
2019-03-05T02:38:58.525Z,0.73
2019-03-05T02:42:05.962Z,0.70
2019-03-05T02:45:03.308Z,0.80
2019-03-05T02:48:13.880Z,0.80
2019-03-05T02:51:27.075Z,1.00
2019-03-05T02:54:29.914Z,1.00
2019-03-05T02:57:08.252Z,0.80
2019-03-05T02:59:39.641Z,0.70
2019-03-05T03:02:30.120Z,0.50
2019-03-05T03:05:34.581Z,1.73
2019-03-05T03:08:05.345Z,0.70
2019-03-05T03:10:36.239Z,0.90
2019-03-05T03:13:07.115Z,1.83
2019-03-05T03:15:37.873Z,0.80
2019-03-05T03:18:08.580Z,1.00
2019-03-05T03:20:39.351Z,0.70
2019-03-05T03:23:10.348Z,0.97
2019-03-05T03:25:41.121Z,0.50
2019-03-05T03:28:12.023Z,0.73
2019-03-05T03:30:42.856Z,0.90
2019-03-05T03:33:14.561Z,0.73
2019-03-05T03:35:45.663Z,0.70
2019-03-05T03:38:16.442Z,0.77
2019-03-05T03:40:47.229Z,1.40
2019-03-05T03:43:17.976Z,0.90
2019-03-05T03:45:48.773Z,1.47
2019-03-05T03:48:19.617Z,1.00
2019-03-05T03:50:50.415Z,0.80
2019-03-05T03:53:21.087Z,0.87
2019-03-05T03:55:51.879Z,0.90
2019-03-05T03:58:22.766Z,0.57
2019-03-05T04:00:53.722Z,0.50
2019-03-05T04:03:24.787Z,0.80
2019-03-05T04:05:55.525Z,0.97
2019-03-05T04:08:26.308Z,0.80
2019-03-05T04:10:57.095Z,0.97
2019-03-05T04:13:28.071Z,1.30
2019-03-05T04:15:58.726Z,0.97
2019-03-05T04:18:29.593Z,1.20
2019-03-05T04:21:00.406Z,0.70
2019-03-05T04:23:31.087Z,1.10
2019-03-05T04:26:01.875Z,1.07
2019-03-05T04:28:32.555Z,1.03
2019-03-05T04:31:03.470Z,2.10
2019-03-05T04:33:34.370Z,1.30
2019-03-05T04:36:05.303Z,1.57
2019-03-05T04:38:36.129Z,1.60
2019-03-05T04:41:06.998Z,1.10
2019-03-05T04:43:37.677Z,1.27
2019-03-05T04:46:27.453Z,1.10
2019-03-05T04:49:36.261Z,1.80
2019-03-05T04:52:13.064Z,0.90
2019-03-05T04:54:43.986Z,1.37
2019-03-05T04:57:14.825Z,1.27
2019-03-05T04:59:45.797Z,0.93
2019-03-05T05:02:16.658Z,1.20
2019-03-05T05:04:47.588Z,1.47
2019-03-05T05:07:18.436Z,1.00
2019-03-05T05:09:49.342Z,1.33
2019-03-05T05:12:20.246Z,1.10
2019-03-05T05:14:51.002Z,1.20
2019-03-05T05:17:21.778Z,1.10
2019-03-05T05:19:52.765Z,1.13
2019-03-05T05:22:23.657Z,1.10
2019-03-05T05:24:54.666Z,1.40
2019-03-05T05:27:25.465Z,1.73
2019-03-05T05:29:56.329Z,1.10
2019-03-05T05:32:27.133Z,1.00
2019-03-05T05:34:57.796Z,0.80
2019-03-05T05:37:28.489Z,1.10
2019-03-05T05:40:24.273Z,1.00
2019-03-05T05:42:54.958Z,1.17
2019-03-05T05:45:27.698Z,1.00
2019-03-05T05:47:58.533Z,1.10
2019-03-05T05:50:29.441Z,1.20
2019-03-05T05:53:00.211Z,1.50
2019-03-05T05:55:30.920Z,1.40
2019-03-05T05:58:01.686Z,0.87
2019-03-05T06:00:32.748Z,1.00
2019-03-05T06:03:03.495Z,1.23
2019-03-05T06:05:34.441Z,1.07
2019-03-05T06:08:05.334Z,1.40
2019-03-05T06:10:37.185Z,1.30
2019-03-05T06:13:08.031Z,1.70
2019-03-05T06:15:38.917Z,1.30
2019-03-05T06:18:09.844Z,0.90
2019-03-05T06:20:42.660Z,0.60
2019-03-05T06:23:13.265Z,0.93
2019-03-05T06:25:44.121Z,1.03
2019-03-05T06:28:15.055Z,1.23
2019-03-05T06:30:46.093Z,1.70
2019-03-05T06:33:17.548Z,0.90
2019-03-05T06:35:48.592Z,1.50
2019-03-05T06:38:19.475Z,1.03
2019-03-05T06:40:50.051Z,0.93
2019-03-05T06:43:20.939Z,1.20
2019-03-05T06:45:51.661Z,1.27
2019-03-05T06:48:22.443Z,1.50
2019-03-05T06:50:53.534Z,1.20
2019-03-05T06:53:24.214Z,1.03
2019-03-05T06:55:55.058Z,1.07
2019-03-05T06:58:25.926Z,1.03
2019-03-05T07:00:56.585Z,1.80
2019-03-05T07:03:27.571Z,1.97
2019-03-05T07:06:57.085Z,2.23
2019-03-05T07:10:20.503Z,1.70
2019-03-05T07:13:10.118Z,1.53
2019-03-05T07:16:09.735Z,1.47
2019-03-05T07:18:58.555Z,1.50
2019-03-05T07:22:08.492Z,1.40
2019-03-05T07:25:04.666Z,2.20
2019-03-05T07:27:40.634Z,1.37
2019-03-05T07:30:21.280Z,0.70
2019-03-05T07:32:52.546Z,1.00
2019-03-05T07:35:31.434Z,1.40
2019-03-05T07:38:02.287Z,1.50
2019-03-05T07:40:33.102Z,1.17
2019-03-05T07:43:03.983Z,1.00
2019-03-05T07:45:34.871Z,1.20
2019-03-05T07:48:05.785Z,1.80
2019-03-05T07:50:37.238Z,1.90
2019-03-05T07:53:07.902Z,1.27
2019-03-05T07:55:38.994Z,0.97
2019-03-05T07:58:09.809Z,0.97
2019-03-05T08:00:40.770Z,1.27
2019-03-05T08:03:11.489Z,1.17
2019-03-05T08:05:42.773Z,1.67
2019-03-05T08:08:49.097Z,1.60
2019-03-05T08:11:20.177Z,0.83
2019-03-05T08:14:12.785Z,0.87
2019-03-05T08:16:43.713Z,1.30
2019-03-05T08:19:14.426Z,1.30
2019-03-05T08:21:45.089Z,1.43
2019-03-05T08:24:15.969Z,1.00
2019-03-05T08:26:46.861Z,1.17
2019-03-05T08:29:17.669Z,1.10
2019-03-05T08:31:48.417Z,1.40
2019-03-05T08:34:19.030Z,0.93
2019-03-05T08:36:49.693Z,1.07
2019-03-05T08:39:20.470Z,0.90
2019-03-05T08:41:51.229Z,1.07
2019-03-05T08:44:22.065Z,1.30
2019-03-05T08:46:52.916Z,1.20
2019-03-05T08:49:23.676Z,1.40
2019-03-05T08:51:54.407Z,1.50
2019-03-05T08:54:25.190Z,1.03
2019-03-05T08:56:56.088Z,1.83
2019-03-05T08:59:26.820Z,0.90
2019-03-05T09:01:57.573Z,1.93
2019-03-05T09:04:28.352Z,1.47
2019-03-05T09:06:59.221Z,0.80
2019-03-05T09:09:30.078Z,1.30
2019-03-05T09:12:01.062Z,1.57
2019-03-05T09:14:34.363Z,1.00
2019-03-05T09:17:04.971Z,1.07
2019-03-05T09:19:35.759Z,1.00
2019-03-05T09:22:06.354Z,1.63
2019-03-05T09:24:37.845Z,1.33
2019-03-05T09:27:08.569Z,1.20
2019-03-05T09:29:39.308Z,1.10
2019-03-05T09:32:09.993Z,1.10
2019-03-05T09:34:40.873Z,1.10
2019-03-05T09:37:11.683Z,1.10
2019-03-05T09:39:42.573Z,1.30
2019-03-05T09:42:13.454Z,1.23
2019-03-05T09:44:44.220Z,1.90
2019-03-05T09:47:15.202Z,1.60
2019-03-05T09:49:45.894Z,0.80
2019-03-05T09:52:16.834Z,1.20
2019-03-05T09:54:48.329Z,1.50
2019-03-05T09:57:19.221Z,1.33
2019-03-05T09:59:49.954Z,1.27
2019-03-05T10:02:20.639Z,1.30
2019-03-05T10:04:51.522Z,1.77
2019-03-05T10:07:22.158Z,0.90
2019-03-05T10:09:52.837Z,1.20
2019-03-05T10:12:23.526Z,1.97
2019-03-05T10:14:54.358Z,0.80
2019-03-05T10:17:25.187Z,1.17
2019-03-05T10:19:55.827Z,1.50
2019-03-05T10:22:26.421Z,1.00
2019-03-05T10:25:05.617Z,1.13
2019-03-05T10:27:30.563Z,1.37
2019-03-05T10:30:01.324Z,0.93
2019-03-05T10:32:32.442Z,1.10
2019-03-05T10:35:03.241Z,0.97
2019-03-05T10:37:35.273Z,1.03
2019-03-05T10:40:06.157Z,1.10
2019-03-05T10:42:37.150Z,1.03
2019-03-05T10:45:09.146Z,1.43
2019-03-05T10:47:40.078Z,1.17
2019-03-05T10:50:15.546Z,1.13
2019-03-05T10:52:46.049Z,0.77
2019-03-05T10:55:25.999Z,0.90
2019-03-05T10:57:49.769Z,1.30
2019-03-05T11:00:28.745Z,0.60
2019-03-05T11:02:59.805Z,1.43
2019-03-05T11:05:34.374Z,0.90
2019-03-05T11:08:07.009Z,0.93
2019-03-05T11:10:38.185Z,1.47
2019-03-05T11:13:09.821Z,1.47
2019-03-05T11:15:41.669Z,0.70
2019-03-05T11:18:13.178Z,1.00
2019-03-05T11:20:43.954Z,1.23
2019-03-05T11:23:14.686Z,0.77
2019-03-05T11:25:45.466Z,1.23
2019-03-05T11:28:16.360Z,1.40
2019-03-05T11:30:47.298Z,1.13
2019-03-05T11:33:18.061Z,1.13
2019-03-05T11:35:48.969Z,1.00
2019-03-05T11:38:20.164Z,1.17
2019-03-05T11:40:51.475Z,0.87
2019-03-05T11:43:22.267Z,1.07
2019-03-05T11:45:53.218Z,1.17
2019-03-05T11:48:23.946Z,1.00
2019-03-05T11:50:54.718Z,0.70
2019-03-05T11:53:25.554Z,1.13
2019-03-05T11:55:58.176Z,0.80
2019-03-05T11:58:28.853Z,1.00
2019-03-05T12:01:09.734Z,2.20
2019-03-05T12:03:40.662Z,0.73
2019-03-05T12:06:11.730Z,1.03
2019-03-05T12:08:42.443Z,0.83
2019-03-05T12:11:13.222Z,1.43
2019-03-05T12:13:44.078Z,0.80
2019-03-05T12:16:15.852Z,0.90
2019-03-05T12:18:46.613Z,1.20
2019-03-05T12:21:17.639Z,0.90
2019-03-05T12:23:48.473Z,1.33
2019-03-05T12:26:19.259Z,1.00
2019-03-05T12:28:50.132Z,0.70
2019-03-05T12:31:20.999Z,1.00
2019-03-05T12:33:51.890Z,0.83
2019-03-05T12:36:22.852Z,1.97
2019-03-05T12:38:53.500Z,1.00
2019-03-05T12:41:24.207Z,0.87
2019-03-05T12:43:54.973Z,1.10
2019-03-05T12:46:26.631Z,0.80
2019-03-05T12:48:57.424Z,1.03
2019-03-05T12:51:28.371Z,1.93
2019-03-05T12:53:59.115Z,1.03
2019-03-05T12:56:30.898Z,1.37
2019-03-05T12:59:01.790Z,0.97
2019-03-05T13:01:34.893Z,0.93
2019-03-05T13:04:05.309Z,0.83
2019-03-05T13:06:36.089Z,0.83
2019-03-05T13:09:17.619Z,0.70
2019-03-05T13:11:46.587Z,0.93
2019-03-05T13:14:18.619Z,1.17
2019-03-05T13:16:49.466Z,0.80
2019-03-05T13:19:20.267Z,0.97
2019-03-05T13:21:51.149Z,0.97
2019-03-05T13:24:21.938Z,0.90
2019-03-05T13:26:54.379Z,0.80
2019-03-05T13:29:25.140Z,0.57
2019-03-05T13:31:56.020Z,0.80
2019-03-05T13:34:27.768Z,0.90
2019-03-05T13:37:00.829Z,0.40
2019-03-05T13:39:30.980Z,0.67
2019-03-05T13:42:01.815Z,0.90
2019-03-05T13:44:38.669Z,1.63
2019-03-05T13:47:10.223Z,0.67
2019-03-05T13:50:17.485Z,1.20
2019-03-05T13:53:34.769Z,0.80
2019-03-05T13:56:37.798Z,0.83
2019-03-05T13:59:37.983Z,0.80
2019-03-05T14:02:10.706Z,0.90
2019-03-05T14:05:12.555Z,0.70
2019-03-05T14:08:42.163Z,0.80
2019-03-05T14:11:13.214Z,1.00
2019-03-05T14:13:44.022Z,1.30
2019-03-05T14:16:16.979Z,0.70
2019-03-05T14:18:47.733Z,0.80
2019-03-05T14:21:18.603Z,0.67
2019-03-05T14:23:49.787Z,0.67
2019-03-05T14:26:20.659Z,0.80
2019-03-05T14:28:51.868Z,1.17
2019-03-05T14:31:22.668Z,0.80
2019-03-05T14:33:53.483Z,0.90
2019-03-05T14:36:24.313Z,0.80
2019-03-05T14:38:55.209Z,0.90
2019-03-05T14:41:26.272Z,1.00
2019-03-05T14:43:57.476Z,1.10
2019-03-05T14:46:28.469Z,0.70
2019-03-05T14:48:59.330Z,0.80
2019-03-05T14:51:30.148Z,1.23
2019-03-05T14:54:00.972Z,0.60
2019-03-05T14:56:31.826Z,0.90
2019-03-05T14:59:04.193Z,0.97
2019-03-05T15:01:35.042Z,1.00
2019-03-05T15:04:05.989Z,0.90
2019-03-05T15:06:36.599Z,0.80
2019-03-05T15:09:07.835Z,0.90
2019-03-05T15:11:39.014Z,0.87
2019-03-05T15:14:09.782Z,1.50
2019-03-05T15:16:41.170Z,1.57
2019-03-05T15:19:20.912Z,1.07
2019-03-05T15:21:44.538Z,1.00
2019-03-05T15:24:15.352Z,1.03
2019-03-05T15:26:46.175Z,0.90
2019-03-05T15:29:16.967Z,1.10
2019-03-05T15:31:47.684Z,0.70
2019-03-05T15:34:18.399Z,0.90
2019-03-05T15:36:51.927Z,0.97
2019-03-05T15:39:21.771Z,1.40
2019-03-05T15:41:52.458Z,1.10
2019-03-05T15:44:23.373Z,0.87
2019-03-05T15:46:54.101Z,1.10
2019-03-05T15:49:24.942Z,1.40
2019-03-05T15:51:55.534Z,0.93
2019-03-05T15:54:26.378Z,1.30
2019-03-05T15:56:57.073Z,0.70
2019-03-05T15:59:27.883Z,0.97
2019-03-05T16:01:58.586Z,1.07
2019-03-05T16:04:29.543Z,1.60
2019-03-05T16:07:00.452Z,1.20
2019-03-05T16:09:34.969Z,1.17
2019-03-05T16:12:05.932Z,0.80
2019-03-05T16:14:36.046Z,0.73
2019-03-05T16:17:06.931Z,1.13
2019-03-05T16:19:37.806Z,1.13
2019-03-05T16:22:08.404Z,0.80
2019-03-05T16:24:39.367Z,0.90
2019-03-05T16:27:10.288Z,0.97
2019-03-05T16:29:41.276Z,1.17
2019-03-05T16:32:31.055Z,1.13
2019-03-05T16:35:13.272Z,1.00
2019-03-05T16:38:08.990Z,0.70
2019-03-05T16:41:17.051Z,1.40
2019-03-05T16:44:07.979Z,0.90
2019-03-05T16:47:00.420Z,1.20
2019-03-05T16:49:45.901Z,0.90
2019-03-05T16:52:33.123Z,1.43
2019-03-05T16:55:20.855Z,1.00
2019-03-05T16:58:13.539Z,1.27
2019-03-05T17:01:03.590Z,1.50
2019-03-05T17:04:05.666Z,2.40
2019-03-05T17:07:05.063Z,2.30
2019-03-05T17:10:11.024Z,1.20
2019-03-05T17:12:42.240Z,2.77
2019-03-05T17:15:15.460Z,3.60
2019-03-05T17:17:46.475Z,6.03
2019-03-05T17:20:17.229Z,6.30
2019-03-05T17:22:48.143Z,12.80
2019-03-05T17:25:18.917Z,7.57
2019-03-05T17:27:49.938Z,3.60
2019-03-05T17:30:21.393Z,2.60
2019-03-05T17:32:52.303Z,2.10
2019-03-05T17:35:35.205Z,1.80
2019-03-05T17:38:07.876Z,2.47
2019-03-05T17:40:39.179Z,6.23
2019-03-05T17:43:10.831Z,4.83
2019-03-05T17:45:41.988Z,3.63
2019-03-05T17:48:12.878Z,2.20
2019-03-05T17:50:43.609Z,2.50
2019-03-05T17:53:14.679Z,2.30
2019-03-05T17:55:46.155Z,2.03
2019-03-05T17:58:17.286Z,1.60
2019-03-05T18:00:48.951Z,1.60
2019-03-05T18:03:20.867Z,1.80
2019-03-05T18:05:51.759Z,6.90
2019-03-05T18:08:23.517Z,10.17
2019-03-05T18:10:54.759Z,4.00
2019-03-05T18:13:25.675Z,3.30
2019-03-05T18:15:57.691Z,2.80
2019-03-05T18:18:28.598Z,1.50
2019-03-05T18:20:59.663Z,1.43
2019-03-05T18:23:30.458Z,1.00
2019-03-05T18:26:01.282Z,1.87
2019-03-05T18:28:33.433Z,1.47
2019-03-05T18:31:04.110Z,1.37
2019-03-05T18:33:35.003Z,1.63
2019-03-05T18:36:05.887Z,1.57
2019-03-05T18:38:36.919Z,1.00
2019-03-05T18:41:07.802Z,2.03
2019-03-05T18:43:38.683Z,1.47
2019-03-05T18:46:09.639Z,1.63
2019-03-05T18:48:40.422Z,1.50
2019-03-05T18:51:11.426Z,2.93
2019-03-05T18:53:42.198Z,4.87
2019-03-05T18:56:14.136Z,2.00
2019-03-05T18:58:44.946Z,1.83
2019-03-05T19:01:15.896Z,2.13
2019-03-05T19:03:46.709Z,1.30
2019-03-05T19:06:17.683Z,2.13
2019-03-05T19:08:48.554Z,1.87
2019-03-05T19:11:19.874Z,2.23
2019-03-05T19:13:50.915Z,2.37
2019-03-05T19:16:21.714Z,1.73
2019-03-05T19:18:52.512Z,1.60
2019-03-05T19:21:23.510Z,2.07
2019-03-05T19:23:54.295Z,2.33
2019-03-05T19:26:25.063Z,1.40
2019-03-05T19:28:55.992Z,1.83
2019-03-05T19:31:27.256Z,1.60
2019-03-05T19:33:57.943Z,1.63
2019-03-05T19:36:28.927Z,1.20
2019-03-05T19:38:59.745Z,1.40
2019-03-05T19:41:30.710Z,1.70
2019-03-05T19:44:01.624Z,2.00
2019-03-05T19:46:32.274Z,1.30
2019-03-05T19:49:03.162Z,1.60
2019-03-05T19:51:33.939Z,1.53
2019-03-05T19:54:05.237Z,1.30
2019-03-05T19:56:36.149Z,1.60
2019-03-05T19:59:06.919Z,1.20
2019-03-05T20:01:43.575Z,1.00
2019-03-05T20:04:14.929Z,1.20
2019-03-05T20:06:45.950Z,1.60
2019-03-05T20:09:20.814Z,1.57
2019-03-05T20:11:51.622Z,1.17
2019-03-05T20:14:22.773Z,1.30
2019-03-05T20:16:53.567Z,1.53
2019-03-05T20:19:24.359Z,1.07
2019-03-05T20:21:55.144Z,1.80
2019-03-05T20:24:25.957Z,1.37
2019-03-05T20:26:56.742Z,1.83
2019-03-05T20:29:27.833Z,1.37
2019-03-05T20:31:58.605Z,1.37
2019-03-05T20:34:29.473Z,1.50
2019-03-05T20:37:00.950Z,1.40
2019-03-05T20:39:31.950Z,1.30
2019-03-05T20:42:03.035Z,1.27
2019-03-05T20:44:33.994Z,1.60
2019-03-05T20:47:05.051Z,1.30
2019-03-05T20:49:35.959Z,1.43
2019-03-05T20:52:06.946Z,1.37
2019-03-05T20:54:38.007Z,1.50
2019-03-05T20:57:08.989Z,1.30
2019-03-05T20:59:39.991Z,1.80
2019-03-05T21:02:10.901Z,1.53
2019-03-05T21:04:41.799Z,1.83
2019-03-05T21:07:12.646Z,1.90
2019-03-05T21:09:43.541Z,1.87
2019-03-05T21:12:14.701Z,1.90
2019-03-05T21:14:45.521Z,1.17
2019-03-05T21:17:16.530Z,2.03
2019-03-05T21:19:47.432Z,2.03
2019-03-05T21:22:18.566Z,1.53
2019-03-05T21:24:50.542Z,1.27
2019-03-05T21:27:21.480Z,1.50
2019-03-05T21:29:52.370Z,1.33
2019-03-05T21:32:23.198Z,1.47
2019-03-05T21:34:53.985Z,1.10
2019-03-05T21:37:24.630Z,1.53
2019-03-05T21:39:56.685Z,1.40
2019-03-05T21:42:27.767Z,1.10
2019-03-05T21:44:58.550Z,1.60
2019-03-05T21:47:29.493Z,1.50
2019-03-05T21:50:00.379Z,1.13
2019-03-05T21:52:31.644Z,1.00
2019-03-05T21:55:02.616Z,1.27
2019-03-05T21:57:33.784Z,1.00
2019-03-05T22:00:05.278Z,0.90
2019-03-05T22:02:36.510Z,1.03
2019-03-05T22:05:07.487Z,1.83
2019-03-05T22:07:40.085Z,1.17
2019-03-05T22:10:13.536Z,1.33
2019-03-05T22:12:44.251Z,2.00
2019-03-05T22:15:16.777Z,1.50
2019-03-05T22:17:47.567Z,1.87
2019-03-05T22:20:19.193Z,1.20
2019-03-05T22:22:50.302Z,1.20
2019-03-05T22:25:21.463Z,1.27
2019-03-05T22:27:52.413Z,1.23
2019-03-05T22:30:25.257Z,1.10
2019-03-05T22:32:55.957Z,1.10
2019-03-05T22:35:26.950Z,1.33
2019-03-05T22:37:57.795Z,1.40
2019-03-05T22:40:28.793Z,1.37
2019-03-05T22:42:59.585Z,1.90
2019-03-05T22:45:30.501Z,1.67
2019-03-05T22:48:01.256Z,2.00
2019-03-05T22:50:33.473Z,1.70
2019-03-05T22:53:04.278Z,1.50
2019-03-05T22:55:35.139Z,1.30
2019-03-05T22:58:06.156Z,1.57
2019-03-05T23:01:13.007Z,1.87
2019-03-05T23:04:04.358Z,1.13
2019-03-05T23:06:35.533Z,1.17
2019-03-05T23:09:14.237Z,1.27
2019-03-05T23:11:45.833Z,1.10
2019-03-05T23:14:16.988Z,1.07
2019-03-05T23:16:49.256Z,1.33
2019-03-05T23:19:20.195Z,1.20
2019-03-05T23:21:50.897Z,1.50
2019-03-05T23:24:21.960Z,2.73
2019-03-05T23:26:53.782Z,2.13
2019-03-05T23:29:35.499Z,1.60
2019-03-05T23:32:07.313Z,1.20
2019-03-05T23:34:38.154Z,1.27
2019-03-05T23:37:09.217Z,1.30
2019-03-05T23:39:40.217Z,1.30
2019-03-05T23:42:10.999Z,1.77
2019-03-05T23:44:41.861Z,2.07
2019-03-05T23:47:12.766Z,1.37
2019-03-05T23:49:43.673Z,1.13
2019-03-05T23:52:14.574Z,1.33
2019-03-05T23:54:45.489Z,1.87
2019-03-05T23:57:16.110Z,1.80
2019-03-05T23:59:47.197Z,0.87
